createdAt,value
2023-03-10T00:00:23.153Z,14.10
2023-03-10T00:01:28.452Z,14.30
2023-03-10T00:02:31.200Z,12.68
2023-03-10T00:03:33.718Z,14.27
2023-03-10T00:04:36.304Z,13.65
2023-03-10T00:05:39.184Z,16.35
2023-03-10T00:06:41.880Z,13.93
2023-03-10T00:07:44.760Z,14.10
2023-03-10T00:08:47.775Z,13.82
2023-03-10T00:09:50.163Z,14.63
2023-03-10T00:10:52.559Z,13.52
2023-03-10T00:11:55.081Z,12.98
2023-03-10T00:12:57.602Z,16.05
2023-03-10T00:14:00.603Z,13.88
2023-03-10T00:15:05.043Z,16.00
2023-03-10T00:16:08.952Z,13.95
2023-03-10T00:17:11.543Z,13.65
2023-03-10T00:18:14.043Z,13.32
2023-03-10T00:19:16.449Z,12.50
2023-03-10T00:20:18.974Z,14.57
2023-03-10T00:21:26.891Z,14.55
2023-03-10T00:22:29.406Z,13.70
2023-03-10T00:23:31.930Z,15.10
2023-03-10T00:24:34.479Z,15.07
2023-03-10T00:25:36.967Z,12.48
2023-03-10T00:26:39.488Z,13.88
2023-03-10T00:27:42.374Z,11.68
2023-03-10T00:28:45.145Z,12.90
2023-03-10T00:29:52.222Z,13.48
2023-03-10T00:30:59.335Z,14.25
2023-03-10T00:32:01.821Z,14.27
2023-03-10T00:33:04.338Z,13.45
2023-03-10T00:34:06.985Z,13.38
2023-03-10T00:35:09.859Z,12.77
2023-03-10T00:36:18.620Z,15.35
2023-03-10T00:38:25.342Z,13.20
2023-03-10T00:39:27.861Z,12.98
2023-03-10T00:40:30.271Z,14.25
2023-03-10T00:41:36.764Z,12.93
2023-03-10T00:42:39.390Z,12.88
2023-03-10T00:43:42.032Z,13.20
2023-03-10T00:44:44.440Z,13.18
2023-03-10T00:45:46.949Z,12.43
2023-03-10T00:46:49.602Z,13.57
2023-03-10T00:47:52.228Z,11.77
2023-03-10T00:48:54.750Z,13.57
2023-03-10T00:49:57.155Z,12.43
2023-03-10T00:51:00.276Z,10.80
2023-03-10T00:52:02.798Z,12.43
2023-03-10T00:53:05.315Z,13.02
2023-03-10T00:54:07.955Z,12.32
2023-03-10T00:55:10.479Z,11.65
2023-03-10T00:56:18.879Z,11.65
2023-03-10T00:57:21.397Z,11.27
2023-03-10T00:58:23.828Z,11.02
2023-03-10T00:59:26.323Z,11.35
2023-03-10T01:00:28.850Z,12.18
2023-03-10T01:01:34.748Z,12.43
2023-03-10T01:02:37.367Z,12.30
2023-03-10T01:03:39.763Z,11.77
2023-03-10T01:04:42.394Z,10.65
2023-03-10T01:05:45.403Z,11.93
2023-03-10T01:06:47.960Z,10.65
2023-03-10T01:07:50.924Z,10.82
2023-03-10T01:08:55.276Z,12.38
2023-03-10T01:09:57.770Z,10.90
2023-03-10T01:11:00.406Z,11.90
2023-03-10T01:12:03.167Z,11.55
2023-03-10T01:13:05.569Z,11.77
2023-03-10T01:14:11.214Z,11.07
2023-03-10T01:15:13.735Z,11.25
2023-03-10T01:16:16.719Z,11.38
2023-03-10T01:17:19.250Z,10.10
2023-03-10T01:18:22.392Z,11.40
2023-03-10T01:19:24.894Z,10.63
2023-03-10T01:20:27.411Z,10.63
2023-03-10T01:21:32.576Z,10.40
2023-03-10T01:22:35.092Z,11.05
2023-03-10T01:23:37.374Z,9.60
2023-03-10T01:24:39.914Z,11.82
2023-03-10T01:25:43.376Z,10.13
2023-03-10T01:26:46.018Z,10.73
2023-03-10T01:27:48.538Z,10.25
2023-03-10T01:28:51.422Z,11.52
2023-03-10T01:29:54.058Z,10.77
2023-03-10T01:30:57.689Z,9.50
2023-03-10T01:32:00.193Z,10.38
2023-03-10T01:33:02.700Z,10.50
2023-03-10T01:34:05.585Z,10.55
2023-03-10T01:35:08.462Z,9.82
2023-03-10T01:36:13.172Z,10.38
2023-03-10T01:37:15.670Z,9.68
2023-03-10T01:38:18.182Z,10.68
2023-03-10T01:39:20.702Z,9.57
2023-03-10T01:40:23.346Z,10.32
2023-03-10T01:41:26.231Z,10.55
2023-03-10T01:42:30.187Z,10.20
2023-03-10T01:43:41.106Z,9.40
2023-03-10T01:44:43.627Z,9.77
2023-03-10T01:45:46.155Z,11.32
2023-03-10T01:46:52.331Z,9.90
2023-03-10T01:48:07.384Z,9.40
2023-03-10T01:49:34.884Z,8.70
2023-03-10T01:50:38.111Z,10.05
2023-03-10T01:51:46.067Z,8.82
2023-03-10T01:52:56.718Z,9.70
2023-03-10T01:53:59.716Z,10.23
2023-03-10T01:55:07.277Z,10.23
2023-03-10T01:56:09.914Z,10.00
2023-03-10T01:57:15.192Z,9.55
2023-03-10T01:58:20.256Z,11.13
2023-03-10T01:59:24.083Z,11.02
2023-03-10T02:00:28.332Z,10.80
2023-03-10T02:01:32.833Z,10.32
2023-03-10T02:02:37.878Z,10.45
2023-03-10T02:03:54.439Z,10.73
2023-03-10T02:04:58.274Z,10.48
2023-03-10T02:06:11.357Z,11.25
2023-03-10T02:07:14.597Z,10.07
2023-03-10T02:08:18.438Z,10.13
2023-03-10T02:09:21.706Z,10.35
2023-03-10T02:10:24.246Z,10.00
2023-03-10T02:11:28.049Z,9.23
2023-03-10T02:12:30.564Z,10.85
2023-03-10T02:13:33.211Z,9.43
2023-03-10T02:14:36.243Z,10.25
2023-03-10T02:15:40.889Z,11.27
2023-03-10T02:16:43.510Z,11.90
2023-03-10T02:17:48.143Z,10.60
2023-03-10T02:18:50.849Z,10.73
2023-03-10T02:20:10.050Z,11.27
2023-03-10T02:21:34.052Z,10.15
2023-03-10T02:22:39.094Z,11.18
2023-03-10T02:24:08.739Z,9.02
2023-03-10T02:25:37.552Z,10.10
2023-03-10T02:26:56.382Z,9.05
2023-03-10T02:27:59.378Z,8.80
2023-03-10T02:29:07.057Z,10.05
2023-03-10T02:30:35.621Z,11.82
2023-03-10T02:31:39.532Z,9.52
2023-03-10T02:32:50.901Z,11.35
2023-03-10T02:33:53.742Z,10.60
2023-03-10T02:34:56.502Z,10.93
2023-03-10T02:36:04.837Z,11.07
2023-03-10T02:37:07.304Z,11.00
2023-03-10T02:38:09.823Z,12.18
2023-03-10T02:39:12.347Z,10.45
2023-03-10T02:40:35.026Z,11.98
2023-03-10T02:41:45.432Z,9.80
2023-03-10T02:42:50.507Z,11.90
2023-03-10T02:43:54.828Z,11.63
2023-03-10T02:45:03.604Z,11.23
2023-03-10T02:46:07.698Z,11.52
2023-03-10T02:47:14.277Z,11.40
2023-03-10T02:48:28.431Z,12.50
2023-03-10T02:49:33.951Z,9.57
2023-03-10T02:50:40.560Z,10.82
2023-03-10T02:51:45.491Z,11.07
2023-03-10T02:52:57.954Z,10.95
2023-03-10T02:54:01.554Z,12.20
2023-03-10T02:55:04.443Z,10.65
2023-03-10T02:56:07.553Z,9.75
2023-03-10T02:57:12.359Z,11.02
2023-03-10T02:58:15.971Z,11.60
2023-03-10T02:59:18.475Z,11.30
2023-03-10T03:00:25.199Z,10.88
2023-03-10T03:01:28.226Z,10.23
2023-03-10T03:02:33.066Z,10.52
2023-03-10T03:03:36.023Z,11.30
2023-03-10T03:04:38.998Z,11.50
2023-03-10T03:05:41.528Z,10.60
2023-03-10T03:06:44.759Z,10.40
2023-03-10T03:07:47.771Z,11.40
2023-03-10T03:08:50.401Z,9.48
2023-03-10T03:09:54.968Z,9.65
2023-03-10T03:10:57.483Z,9.38
2023-03-10T03:12:01.202Z,10.38
2023-03-10T03:13:04.085Z,10.68
2023-03-10T03:14:07.961Z,10.68
2023-03-10T03:15:10.808Z,10.55
2023-03-10T03:16:13.753Z,10.52
2023-03-10T03:17:17.528Z,9.02
2023-03-10T03:18:20.190Z,10.77
2023-03-10T03:19:22.941Z,10.50
2023-03-10T03:20:26.302Z,11.20
2023-03-10T03:21:29.058Z,9.60
2023-03-10T03:22:31.815Z,12.02
2023-03-10T03:23:34.940Z,10.52
2023-03-10T03:24:37.931Z,10.35
2023-03-10T03:25:41.896Z,10.90
2023-03-10T03:26:47.056Z,10.48
2023-03-10T03:27:53.543Z,10.60
2023-03-10T03:28:56.537Z,10.75
2023-03-10T03:30:05.573Z,11.93
2023-03-10T03:31:12.983Z,11.05
2023-03-10T03:32:15.750Z,9.95
2023-03-10T03:33:18.274Z,10.13
2023-03-10T03:34:21.377Z,9.00
2023-03-10T03:35:30.558Z,10.10
2023-03-10T03:36:33.392Z,10.32
2023-03-10T03:37:36.020Z,10.35
2023-03-10T03:38:38.901Z,8.70
2023-03-10T03:39:41.461Z,9.90
2023-03-10T03:40:45.629Z,10.85
2023-03-10T03:41:53.413Z,11.38
2023-03-10T03:42:56.904Z,9.73
2023-03-10T03:43:59.546Z,10.05
2023-03-10T03:45:02.422Z,10.15
2023-03-10T03:46:05.700Z,10.40
2023-03-10T03:47:10.599Z,9.77
2023-03-10T03:48:14.666Z,9.40
2023-03-10T03:49:17.787Z,9.55
2023-03-10T03:50:22.964Z,9.63
2023-03-10T03:51:27.290Z,9.52
2023-03-10T03:52:30.049Z,8.63
2023-03-10T03:53:33.988Z,8.10
2023-03-10T03:54:36.516Z,9.57
2023-03-10T03:55:39.157Z,9.98
2023-03-10T03:56:41.913Z,9.45
2023-03-10T03:57:47.076Z,9.20
2023-03-10T03:58:49.832Z,9.90
2023-03-10T03:59:52.721Z,8.90
2023-03-10T04:00:55.236Z,9.40
2023-03-10T04:01:57.813Z,9.85
2023-03-10T04:03:01.022Z,9.07
2023-03-10T04:04:05.321Z,10.35
2023-03-10T04:05:08.437Z,9.07
2023-03-10T04:06:10.958Z,8.82
2023-03-10T04:07:13.958Z,9.05
2023-03-10T04:08:16.480Z,9.20
2023-03-10T04:09:19.003Z,8.57
2023-03-10T04:10:23.803Z,9.40
2023-03-10T04:11:26.566Z,9.88
2023-03-10T04:12:29.718Z,9.55
2023-03-10T04:13:33.884Z,8.93
2023-03-10T04:14:37.487Z,9.07
2023-03-10T04:15:40.537Z,9.30
2023-03-10T04:16:43.009Z,9.85
2023-03-10T04:17:45.404Z,8.75
2023-03-10T04:18:48.067Z,9.13
2023-03-10T04:20:06.335Z,9.20
2023-03-10T04:21:10.505Z,9.40
2023-03-10T04:22:13.255Z,8.95
2023-03-10T04:23:16.378Z,9.82
2023-03-10T04:24:18.892Z,9.18
2023-03-10T04:25:21.413Z,10.63
2023-03-10T04:26:24.651Z,9.57
2023-03-10T04:27:27.172Z,10.45
2023-03-10T04:28:29.600Z,9.70
2023-03-10T04:29:32.220Z,10.77
2023-03-10T04:30:35.336Z,11.27
2023-03-10T04:31:37.989Z,10.43
2023-03-10T04:32:42.054Z,9.05
2023-03-10T04:33:46.026Z,10.30
2023-03-10T04:34:49.379Z,10.93
2023-03-10T04:35:53.564Z,9.88
2023-03-10T04:36:57.662Z,12.10
2023-03-10T04:38:00.184Z,10.90
2023-03-10T04:39:05.110Z,12.48
2023-03-10T04:40:12.309Z,11.77
2023-03-10T04:41:17.605Z,11.90
2023-03-10T04:42:21.673Z,11.25
2023-03-10T04:43:25.153Z,12.30
2023-03-10T04:44:31.396Z,12.55
2023-03-10T04:45:36.549Z,11.63
2023-03-10T04:46:39.034Z,13.75
2023-03-10T04:47:42.312Z,13.55
2023-03-10T04:48:45.443Z,14.18
2023-03-10T04:49:48.206Z,15.63
2023-03-10T04:51:02.485Z,13.60
2023-03-10T04:52:08.234Z,14.40
2023-03-10T04:53:10.757Z,15.00
2023-03-10T04:54:13.395Z,13.52
2023-03-10T04:55:16.395Z,13.95
2023-03-10T04:56:19.634Z,15.93
2023-03-10T04:57:24.677Z,14.10
2023-03-10T04:59:46.040Z,15.57
2023-03-10T05:01:02.297Z,15.63
2023-03-10T05:02:06.840Z,17.08
2023-03-10T05:03:09.439Z,14.82
2023-03-10T05:04:12.015Z,16.10
2023-03-10T05:05:14.602Z,15.38
2023-03-10T05:06:21.920Z,13.90
2023-03-10T05:07:50.360Z,16.05
2023-03-10T05:08:54.800Z,14.63
2023-03-10T05:09:59.120Z,17.45
2023-03-10T05:11:06.830Z,16.58
2023-03-10T05:12:10.764Z,17.38
2023-03-10T05:13:14.251Z,15.23
2023-03-10T05:14:18.582Z,15.98
2023-03-10T05:15:21.083Z,16.80
2023-03-10T05:16:24.166Z,14.80
2023-03-10T05:17:29.494Z,16.25
2023-03-10T05:18:32.374Z,16.25
2023-03-10T05:19:35.372Z,14.20
2023-03-10T05:20:38.848Z,13.73
2023-03-10T05:21:41.511Z,15.00
2023-03-10T05:22:44.851Z,16.63
2023-03-10T05:23:47.743Z,15.45
2023-03-10T05:24:51.208Z,19.35
2023-03-10T05:25:54.461Z,15.73
2023-03-10T05:26:59.012Z,14.85
2023-03-10T05:28:01.654Z,15.05
2023-03-10T05:29:05.743Z,15.77
2023-03-10T05:30:19.531Z,15.65
2023-03-10T05:31:27.887Z,13.43
2023-03-10T05:32:40.174Z,14.50
2023-03-10T05:33:43.313Z,13.38
2023-03-10T05:34:47.021Z,15.05
2023-03-10T05:35:50.067Z,14.95
2023-03-10T05:36:53.744Z,15.10
2023-03-10T05:37:56.499Z,16.17
2023-03-10T05:38:59.019Z,14.27
2023-03-10T05:40:03.823Z,14.57
2023-03-10T05:41:08.744Z,13.98
2023-03-10T05:42:14.752Z,13.15
2023-03-10T05:43:17.980Z,13.20
2023-03-10T05:44:20.989Z,13.52
2023-03-10T05:45:24.710Z,13.30
2023-03-10T05:46:28.280Z,13.27
2023-03-10T05:47:34.064Z,13.23
2023-03-10T05:48:38.149Z,13.32
2023-03-10T05:49:40.919Z,12.18
2023-03-10T05:50:44.147Z,14.25
2023-03-10T05:51:46.550Z,13.13
2023-03-10T05:52:49.069Z,14.57
2023-03-10T05:53:51.714Z,14.02
2023-03-10T05:54:59.658Z,13.65
2023-03-10T05:56:09.479Z,12.65
2023-03-10T05:57:13.982Z,12.37
2023-03-10T05:58:17.516Z,13.57
2023-03-10T05:59:20.036Z,13.80
2023-03-10T06:00:22.923Z,12.73
2023-03-10T06:01:33.967Z,12.68
2023-03-10T06:02:39.147Z,14.10
2023-03-10T06:03:42.236Z,11.68
2023-03-10T06:04:44.880Z,12.18
2023-03-10T06:05:47.418Z,12.45
2023-03-10T06:06:50.058Z,13.25
2023-03-10T06:07:52.586Z,13.88
2023-03-10T06:08:55.680Z,14.00
2023-03-10T06:09:58.215Z,13.32
2023-03-10T06:11:00.720Z,11.60
2023-03-10T06:12:03.239Z,13.98
2023-03-10T06:13:05.953Z,12.63
2023-03-10T06:14:08.523Z,12.77
2023-03-10T06:15:11.047Z,13.23
2023-03-10T06:16:13.597Z,11.82
2023-03-10T06:17:18.653Z,12.55
2023-03-10T06:18:22.452Z,11.50
2023-03-10T06:19:26.064Z,12.43
2023-03-10T06:20:28.692Z,13.40
2023-03-10T06:21:31.213Z,12.90
2023-03-10T06:22:34.245Z,12.45
2023-03-10T06:23:38.441Z,10.75
2023-03-10T06:24:40.957Z,13.27
2023-03-10T06:25:43.701Z,12.35
2023-03-10T06:26:46.222Z,13.00
2023-03-10T06:27:48.858Z,12.05
2023-03-10T06:28:51.259Z,11.25
2023-03-10T06:29:53.773Z,11.98
2023-03-10T06:30:57.500Z,11.38
2023-03-10T06:32:00.265Z,11.48
2023-03-10T06:33:03.689Z,11.23
2023-03-10T06:34:06.383Z,10.30
2023-03-10T06:35:12.265Z,12.45
2023-03-10T06:36:15.934Z,12.52
2023-03-10T06:37:19.264Z,12.85
2023-03-10T06:38:23.080Z,11.70
2023-03-10T06:39:28.965Z,11.45
2023-03-10T06:40:31.472Z,12.35
2023-03-10T06:41:36.274Z,12.63
2023-03-10T06:42:40.467Z,11.45
2023-03-10T06:43:43.111Z,11.90
2023-03-10T06:44:47.374Z,12.98
2023-03-10T06:45:51.783Z,10.68
2023-03-10T06:46:54.270Z,12.05
2023-03-10T06:47:56.802Z,10.93
2023-03-10T06:49:01.841Z,12.20
2023-03-10T06:50:06.153Z,11.98
2023-03-10T06:51:11.552Z,12.40
2023-03-10T06:52:14.087Z,11.40
2023-03-10T06:53:19.717Z,10.18
2023-03-10T06:54:23.198Z,10.75
2023-03-10T06:55:25.717Z,10.80
2023-03-10T06:56:28.238Z,11.45
2023-03-10T06:57:30.640Z,11.35
2023-03-10T06:58:36.164Z,12.35
2023-03-10T06:59:38.801Z,11.32
2023-03-10T07:00:41.445Z,12.73
2023-03-10T07:01:44.570Z,11.02
2023-03-10T07:02:47.085Z,10.25
2023-03-10T07:03:49.973Z,11.98
2023-03-10T07:04:52.564Z,12.70
2023-03-10T07:05:56.443Z,12.40
2023-03-10T07:06:58.967Z,12.27
2023-03-10T07:08:01.361Z,11.40
2023-03-10T07:09:04.483Z,12.30
2023-03-10T07:10:08.374Z,11.45
2023-03-10T07:11:11.095Z,12.43
2023-03-10T07:12:13.603Z,12.73
2023-03-10T07:13:17.457Z,11.75
2023-03-10T07:14:20.086Z,12.02
2023-03-10T07:15:23.206Z,11.75
2023-03-10T07:16:25.801Z,11.88
2023-03-10T07:17:28.276Z,13.55
2023-03-10T07:18:30.887Z,11.80
2023-03-10T07:19:33.531Z,12.52
2023-03-10T07:20:39.046Z,11.68
2023-03-10T07:21:41.933Z,12.70
2023-03-10T07:22:44.702Z,13.45
2023-03-10T07:23:47.454Z,12.70
2023-03-10T07:24:53.578Z,11.65
2023-03-10T07:25:57.435Z,10.23
2023-03-10T07:27:01.371Z,13.38
2023-03-10T07:28:05.215Z,11.70
2023-03-10T07:29:07.856Z,11.70
2023-03-10T07:30:10.982Z,11.93
2023-03-10T07:31:14.751Z,12.70
2023-03-10T07:32:17.379Z,11.52
2023-03-10T07:33:20.235Z,10.88
2023-03-10T07:34:22.869Z,11.82
2023-03-10T07:35:25.872Z,12.13
2023-03-10T07:36:29.379Z,11.30
2023-03-10T07:37:31.747Z,12.55
2023-03-10T07:38:34.384Z,10.98
2023-03-10T07:39:36.778Z,12.32
2023-03-10T07:40:40.501Z,12.52
2023-03-10T07:41:43.028Z,13.68
2023-03-10T07:42:45.545Z,13.38
2023-03-10T07:43:52.747Z,13.20
2023-03-10T07:44:55.268Z,11.48
2023-03-10T07:45:57.829Z,14.07
2023-03-10T07:47:00.193Z,12.30
2023-03-10T07:48:02.708Z,12.57
2023-03-10T07:49:05.357Z,11.50
2023-03-10T07:50:08.227Z,12.23
2023-03-10T07:51:12.566Z,11.60
2023-03-10T07:52:16.407Z,12.15
2023-03-10T07:53:18.806Z,10.98
2023-03-10T07:54:21.434Z,12.13
2023-03-10T07:55:24.443Z,11.48
2023-03-10T07:56:27.131Z,13.13
2023-03-10T07:57:29.715Z,12.95
2023-03-10T07:58:32.843Z,12.35
2023-03-10T07:59:35.681Z,11.93
2023-03-10T08:00:38.697Z,12.70
2023-03-10T08:01:41.351Z,11.70
2023-03-10T08:02:44.014Z,14.10
2023-03-10T08:03:47.694Z,12.00
2023-03-10T08:04:50.298Z,10.70
2023-03-10T08:05:53.119Z,12.55
2023-03-10T08:06:56.373Z,13.45
2023-03-10T08:08:00.444Z,13.23
2023-03-10T08:09:05.364Z,11.90
2023-03-10T08:10:10.415Z,12.55
2023-03-10T08:11:12.934Z,11.43
2023-03-10T08:12:15.457Z,13.80
2023-03-10T08:13:17.979Z,11.98
2023-03-10T08:14:24.103Z,12.38
2023-03-10T08:15:27.095Z,11.45
2023-03-10T08:16:29.798Z,12.82
2023-03-10T08:17:33.642Z,12.68
2023-03-10T08:18:36.644Z,12.75
2023-03-10T08:19:40.286Z,12.02
2023-03-10T08:20:42.817Z,12.80
2023-03-10T08:21:45.330Z,12.30
2023-03-10T08:22:47.854Z,12.57
2023-03-10T08:23:50.381Z,11.23
2023-03-10T08:24:52.900Z,11.75
2023-03-10T08:25:55.427Z,11.65
2023-03-10T08:26:58.050Z,10.55
2023-03-10T08:28:00.591Z,11.85
2023-03-10T08:29:03.096Z,12.57
2023-03-10T08:30:06.468Z,10.93
2023-03-10T08:31:11.064Z,12.93
2023-03-10T08:32:13.568Z,12.05
2023-03-10T08:33:16.053Z,12.77
2023-03-10T08:34:18.951Z,13.43
2023-03-10T08:35:21.461Z,11.48
2023-03-10T08:36:26.647Z,13.05
2023-03-10T08:37:29.139Z,12.90
2023-03-10T08:38:31.551Z,11.70
2023-03-10T08:39:34.065Z,12.25
2023-03-10T08:40:36.580Z,11.90
2023-03-10T08:41:49.114Z,11.43
2023-03-10T08:42:51.945Z,11.15
2023-03-10T08:43:56.625Z,12.60
2023-03-10T08:44:59.149Z,11.48
2023-03-10T08:46:01.665Z,12.45
2023-03-10T08:47:04.536Z,12.68
2023-03-10T08:48:06.945Z,12.23
2023-03-10T08:49:10.067Z,11.73
2023-03-10T08:50:13.550Z,13.38
2023-03-10T08:51:16.814Z,12.90
2023-03-10T08:52:19.430Z,11.55
2023-03-10T08:53:21.848Z,11.80
2023-03-10T08:54:24.351Z,12.20
2023-03-10T08:55:26.880Z,12.52
2023-03-10T08:56:29.519Z,11.07
2023-03-10T08:57:32.514Z,12.65
2023-03-10T08:58:35.165Z,11.75
2023-03-10T08:59:37.721Z,11.55
2023-03-10T09:00:40.205Z,11.57
2023-03-10T09:01:42.800Z,11.63
2023-03-10T09:02:45.618Z,11.68
2023-03-10T09:03:48.246Z,11.20
2023-03-10T09:04:51.000Z,11.98
2023-03-10T09:05:55.571Z,11.57
2023-03-10T09:06:58.081Z,12.35
2023-03-10T09:08:00.483Z,11.15
2023-03-10T09:09:05.407Z,11.32
2023-03-10T09:10:08.043Z,11.00
2023-03-10T09:11:16.812Z,12.10
2023-03-10T09:12:19.330Z,12.35
2023-03-10T09:13:22.094Z,11.77
2023-03-10T09:14:24.643Z,12.10
2023-03-10T09:15:27.135Z,11.68
2023-03-10T09:16:30.273Z,11.30
2023-03-10T09:17:32.765Z,9.73
2023-03-10T09:18:36.013Z,10.10
2023-03-10T09:19:38.527Z,11.63
2023-03-10T09:20:41.896Z,11.05
2023-03-10T09:21:44.412Z,10.35
2023-03-10T09:22:46.933Z,10.10
2023-03-10T09:23:52.939Z,10.30
2023-03-10T09:24:55.485Z,9.38
2023-03-10T09:25:57.969Z,10.35
2023-03-10T09:27:00.505Z,10.70
2023-03-10T09:28:03.014Z,10.13
2023-03-10T09:29:05.655Z,9.95
2023-03-10T09:30:08.534Z,12.05
2023-03-10T09:31:18.544Z,10.73
2023-03-10T09:32:21.160Z,10.30
2023-03-10T09:33:23.782Z,8.77
2023-03-10T09:34:27.746Z,9.55
2023-03-10T09:35:30.528Z,9.13
2023-03-10T09:36:33.301Z,8.98
2023-03-10T09:37:35.780Z,10.95
2023-03-10T09:38:38.310Z,9.48
2023-03-10T09:39:40.820Z,10.18
2023-03-10T09:40:49.344Z,9.00
2023-03-10T09:42:07.014Z,9.07
2023-03-10T09:43:19.615Z,10.00
2023-03-10T09:44:53.066Z,8.60
2023-03-10T09:46:06.550Z,9.18
2023-03-10T09:47:34.227Z,9.75
2023-03-10T09:48:57.154Z,9.98
2023-03-10T09:50:16.351Z,10.45
2023-03-10T09:51:24.749Z,10.18
2023-03-10T09:52:45.753Z,9.68
2023-03-10T09:53:58.488Z,10.13
2023-03-10T09:55:06.633Z,10.57
2023-03-10T09:56:31.836Z,10.35
2023-03-10T09:57:35.922Z,10.15
2023-03-10T09:58:44.200Z,8.95
2023-03-10T09:59:50.086Z,9.50
2023-03-10T10:00:52.490Z,10.35
2023-03-10T10:01:56.076Z,10.68
2023-03-10T10:03:08.886Z,10.45
2023-03-10T10:04:18.225Z,9.55
2023-03-10T10:05:26.444Z,10.35
2023-03-10T10:06:33.884Z,9.77
2023-03-10T10:08:16.121Z,10.48
2023-03-10T10:09:30.401Z,10.02
2023-03-10T10:10:37.122Z,10.05
2023-03-10T10:11:40.134Z,11.10
2023-03-10T10:12:43.730Z,10.13
2023-03-10T10:13:46.243Z,10.20
2023-03-10T10:14:57.191Z,10.90
2023-03-10T10:16:33.416Z,9.38
2023-03-10T10:17:53.046Z,9.20
2023-03-10T10:19:14.207Z,8.70
2023-03-10T10:20:46.608Z,9.13
2023-03-10T10:21:55.366Z,11.20
2023-03-10T10:22:57.887Z,9.73
2023-03-10T10:24:00.525Z,9.23
2023-03-10T10:25:08.887Z,9.38
2023-03-10T10:26:17.569Z,10.15
2023-03-10T10:27:21.828Z,9.40
2023-03-10T10:28:50.912Z,9.50
2023-03-10T10:29:53.575Z,9.35
2023-03-10T10:31:14.065Z,10.23
2023-03-10T10:32:18.256Z,8.82
2023-03-10T10:33:20.934Z,9.95
2023-03-10T10:34:23.452Z,10.13
2023-03-10T10:35:28.031Z,10.13
2023-03-10T10:36:34.012Z,9.85
2023-03-10T10:37:41.413Z,8.85
2023-03-10T10:38:49.740Z,9.38
2023-03-10T10:39:53.939Z,11.00
2023-03-10T10:41:04.594Z,10.63
2023-03-10T10:42:29.831Z,9.90
2023-03-10T10:43:40.986Z,10.02
2023-03-10T10:44:45.064Z,9.43
2023-03-10T10:45:56.766Z,10.93
2023-03-10T10:47:00.588Z,10.80
2023-03-10T10:48:04.509Z,9.77
2023-03-10T10:49:27.693Z,10.10
2023-03-10T10:50:35.589Z,9.90
2023-03-10T10:51:38.908Z,10.10
2023-03-10T10:52:41.623Z,10.00
2023-03-10T10:53:44.233Z,9.98
2023-03-10T10:54:56.714Z,10.05
2023-03-10T10:56:15.551Z,11.02
2023-03-10T10:57:21.312Z,10.45
2023-03-10T10:58:35.852Z,9.45
2023-03-10T10:59:38.601Z,9.02
2023-03-10T11:00:41.246Z,10.48
2023-03-10T11:02:01.670Z,9.80
2023-03-10T11:03:24.558Z,11.98
2023-03-10T11:04:43.174Z,10.85
2023-03-10T11:05:45.686Z,9.73
2023-03-10T11:06:50.482Z,9.90
2023-03-10T11:07:53.285Z,9.23
2023-03-10T11:09:18.431Z,9.75
2023-03-10T11:10:28.161Z,8.80
2023-03-10T11:12:12.683Z,10.68
2023-03-10T11:13:19.286Z,10.07
2023-03-10T11:14:49.436Z,9.02
2023-03-10T11:16:32.246Z,10.93
2023-03-10T11:17:40.407Z,9.95
2023-03-10T11:19:11.252Z,9.77
2023-03-10T11:20:25.676Z,8.38
2023-03-10T11:21:35.016Z,9.57
2023-03-10T11:22:53.373Z,10.40
2023-03-10T11:24:45.452Z,10.40
2023-03-10T11:26:05.612Z,9.00
2023-03-10T11:27:46.535Z,9.85
2023-03-10T11:29:21.015Z,9.52
2023-03-10T11:30:35.384Z,10.32
2023-03-10T11:31:53.139Z,10.35
2023-03-10T11:33:04.662Z,10.82
2023-03-10T11:34:32.034Z,10.55
2023-03-10T11:35:46.735Z,9.13
2023-03-10T11:37:17.047Z,9.95
2023-03-10T11:38:43.542Z,10.35
2023-03-10T11:40:15.943Z,9.25
2023-03-10T11:41:28.790Z,9.63
2023-03-10T11:42:40.064Z,9.75
2023-03-10T11:44:03.590Z,9.30
2023-03-10T11:45:29.270Z,10.13
2023-03-10T11:46:44.405Z,10.20
2023-03-10T11:48:16.432Z,10.07
2023-03-10T11:49:24.364Z,9.68
2023-03-10T11:50:44.748Z,9.00
2023-03-10T11:52:10.583Z,10.35
2023-03-10T11:53:19.429Z,9.88
2023-03-10T11:54:35.163Z,10.05
2023-03-10T11:55:39.353Z,10.07
2023-03-10T11:56:42.117Z,10.77
2023-03-10T11:57:50.520Z,11.18
2023-03-10T11:58:58.567Z,10.57
2023-03-10T12:00:05.875Z,10.07
2023-03-10T12:01:14.155Z,9.70
2023-03-10T12:02:42.738Z,11.35
2023-03-10T12:04:02.758Z,10.63
2023-03-10T12:05:21.349Z,10.63
2023-03-10T12:06:29.880Z,10.68
2023-03-10T12:07:38.044Z,10.55
2023-03-10T12:08:41.764Z,10.82
2023-03-10T12:09:54.136Z,11.50
2023-03-10T12:10:59.771Z,11.65
2023-03-10T12:12:05.320Z,10.85
2023-03-10T12:13:21.365Z,11.52
2023-03-10T12:14:25.452Z,10.68
2023-03-10T12:15:37.172Z,11.48
2023-03-10T12:16:42.024Z,10.30
2023-03-10T12:17:45.853Z,10.27
2023-03-10T12:18:48.746Z,10.90
2023-03-10T12:20:16.550Z,10.15
2023-03-10T12:21:23.053Z,9.88
2023-03-10T12:22:36.027Z,11.43
2023-03-10T12:23:41.892Z,9.95
2023-03-10T12:24:46.573Z,11.23
2023-03-10T12:25:49.333Z,10.10
2023-03-10T12:27:03.490Z,9.85
2023-03-10T12:28:18.198Z,9.57
2023-03-10T12:29:20.591Z,11.38
2023-03-10T12:31:00.133Z,12.27
2023-03-10T12:32:03.214Z,10.32
2023-03-10T12:33:42.184Z,10.35
2023-03-10T12:34:44.655Z,10.43
2023-03-10T12:35:50.983Z,10.82
2023-03-10T12:37:21.743Z,10.25
2023-03-10T12:38:43.465Z,10.85
2023-03-10T12:39:46.226Z,9.45
2023-03-10T12:40:51.627Z,11.50
2023-03-10T12:42:01.594Z,10.48
2023-03-10T12:43:42.513Z,9.63
2023-03-10T12:44:54.139Z,10.52
2023-03-10T12:45:58.699Z,9.73
2023-03-10T12:47:17.911Z,11.68
2023-03-10T12:48:22.342Z,10.10
2023-03-10T12:49:34.599Z,11.63
2023-03-10T12:50:52.832Z,10.88
2023-03-10T12:52:24.900Z,10.45
2023-03-10T12:53:39.994Z,10.95
2023-03-10T12:55:03.284Z,10.43
2023-03-10T12:56:11.914Z,9.63
2023-03-10T12:57:49.588Z,10.85
2023-03-10T12:59:03.526Z,9.00
2023-03-10T13:00:40.279Z,9.63
2023-03-10T13:01:55.168Z,10.60
2023-03-10T13:03:19.923Z,9.10
2023-03-10T13:04:23.675Z,10.50
2023-03-10T13:05:35.441Z,9.55
2023-03-10T13:06:40.731Z,9.57
2023-03-10T13:07:47.680Z,9.65
2023-03-10T13:09:01.862Z,10.57
2023-03-10T13:10:04.846Z,9.02
2023-03-10T13:11:36.070Z,10.07
2023-03-10T13:13:52.006Z,8.95
2023-03-10T13:14:57.177Z,10.23
2023-03-10T13:16:02.481Z,9.23
2023-03-10T13:17:06.889Z,8.98
2023-03-10T13:18:21.408Z,9.25
2023-03-10T13:19:26.366Z,9.95
2023-03-10T13:20:28.974Z,8.52
2023-03-10T13:21:37.817Z,9.45
2023-03-10T13:22:40.738Z,10.13
2023-03-10T13:23:43.497Z,10.68
2023-03-10T13:24:58.011Z,9.00
2023-03-10T13:26:07.434Z,8.25
2023-03-10T13:27:15.781Z,9.90
2023-03-10T13:28:18.295Z,11.13
2023-03-10T13:29:21.075Z,9.52
2023-03-10T13:30:26.721Z,9.02
2023-03-10T13:31:31.906Z,9.82
2023-03-10T13:32:34.457Z,9.38
2023-03-10T13:33:50.174Z,9.95
2023-03-10T13:34:54.791Z,8.88
2023-03-10T13:35:57.352Z,8.48
2023-03-10T13:37:10.397Z,10.98
2023-03-10T13:38:21.880Z,9.40
2023-03-10T13:39:27.380Z,8.77
2023-03-10T13:40:30.305Z,9.05
2023-03-10T13:41:37.648Z,8.23
2023-03-10T13:42:43.838Z,10.30
2023-03-10T13:43:48.674Z,10.77
2023-03-10T13:44:52.512Z,9.65
2023-03-10T13:45:59.162Z,9.13
2023-03-10T13:47:04.575Z,10.25
2023-03-10T13:48:07.506Z,9.45
2023-03-10T13:49:15.313Z,9.18
2023-03-10T13:50:18.190Z,10.25
2023-03-10T13:51:31.753Z,10.65
2023-03-10T13:52:34.973Z,10.07
2023-03-10T13:53:37.512Z,8.90
2023-03-10T13:54:42.442Z,11.50
2023-03-10T13:55:44.955Z,9.55
2023-03-10T13:56:50.119Z,9.77
2023-03-10T13:57:54.686Z,9.10
2023-03-10T13:58:58.752Z,9.95
2023-03-10T14:00:07.158Z,10.32
2023-03-10T14:01:21.637Z,9.80
2023-03-10T14:02:33.332Z,10.43
2023-03-10T14:03:35.926Z,9.43
2023-03-10T14:04:40.041Z,10.90
2023-03-10T14:05:45.976Z,10.23
2023-03-10T14:07:07.399Z,9.20
2023-03-10T14:08:36.322Z,9.13
2023-03-10T14:09:38.967Z,8.45
2023-03-10T14:10:41.482Z,10.05
2023-03-10T14:11:47.147Z,10.10
2023-03-10T14:12:52.058Z,10.02
2023-03-10T14:13:54.563Z,9.98
2023-03-10T14:15:14.622Z,10.18
2023-03-10T14:16:17.160Z,9.80
2023-03-10T14:17:35.369Z,10.43
2023-03-10T14:18:40.536Z,10.95
2023-03-10T14:19:42.959Z,10.88
2023-03-10T14:20:47.607Z,11.80
2023-03-10T14:22:00.292Z,10.50
2023-03-10T14:23:19.173Z,10.43
2023-03-10T14:24:21.685Z,11.23
2023-03-10T14:25:25.300Z,10.88
2023-03-10T14:26:27.924Z,10.20
2023-03-10T14:27:34.657Z,9.95